Impacts TAF Board INFO
FOR SITUATIONAL AWARENESS. NOT TO BE USED FOR FLIGHT PLANNING PURPOSES.
IDs:

KFLL - Ft Lauderdale-Hollyw, FL, US

Issued at 2337 UTC 17 Aug 2018
Updated at 0127 UTC 18 Aug 2018
Potential Impact None Slight Moderate High
Time0053Z 18/02Z 18/03Z 18/04Z 18/05Z 18/06Z 18/07Z 18/08Z 18/09Z 18/10Z 18/11Z 18/12Z 18/13Z 18/14Z>>
Type OBS PRVL PRVL PRVL PRVL PRVL PRVL PRVL PRVL PRVL PRVL PRVL PRVL PRVL
VIS 10 >6 >6 >6 >6 >6 >6 >6 >6 >6 >6 >6 >6 >6
CIG 250 -- -- -- -- -- -- -- -- -- -- -- -- --
Cover BKN SCT SCT SCT SCT SCT SCT SCT SCT SCT SCT SCT SCT SCT
FltCat VFR VFR VFR VFR VFR VFR VFR VFR VFR VFR VFR VFR VFR VFR
WX -- VCSH VCSH VCSH VCSH VCSH VCSH VCSH VCSH VCSH VCSH VCSH VCSH VCSH
WDir 90 90 90 90 90 90 90 90 90 90 100 100 100 100
WSpd 10 10 10 10 10 10 10 10 10 10 13 13 13 13
WGst -- -- -- -- -- -- -- -- -- -- -- -- -- --

Raw TAF
KFLL 172337Z 1800/1906 09010KT P6SM VCSH SCT025 SCT050
  FM181100 10013KT P6SM VCSH SCT025 SCT040
  FM181600 11013KT P6SM FEW030
  FM182300 10010KT P6SM VCSH SCT025


Raw METAR
KFLL 180053Z 09010KT 10SM FEW022 SCT200 BKN250 29/26 A3013 RMK AO2 SLP201 T02890261
KFLL 172353Z 09010KT 10SM FEW027 FEW070 SCT200 BKN250 29/26 A3012 RMK AO2 SLP198 T02940256 10322 20294 55004
KFLL 172253Z COR 08011KT 10SM FEW026 SCT200 SCT250 30/26 A3010 RMK AO2 SLP193 CB DSNT SE T03000261

METAR Board
Radar Display
Forecast Discussion

FOR SITUATIONAL AWARENESS. NOT TO BE USED FOR FLIGHT PLANNING PURPOSES.